createdAt,value
2022-10-28T00:00:02.197Z,20.65
2022-10-28T00:05:06.114Z,20.55
2022-10-28T00:10:11.687Z,20.57
2022-10-28T00:15:15.283Z,20.28
2022-10-28T00:20:18.938Z,20.53
2022-10-28T00:25:24.126Z,20.63
2022-10-28T00:30:27.716Z,20.47
2022-10-28T00:35:31.282Z,20.25
2022-10-28T00:40:37.387Z,20.14
2022-10-28T00:45:41.031Z,20.02
2022-10-28T00:50:48.404Z,19.74
2022-10-28T00:55:54.038Z,19.61
2022-10-28T01:00:57.873Z,19.39
2022-10-28T01:06:02.676Z,19.19
2022-10-28T01:11:27.683Z,19.40
2022-10-28T01:16:40.435Z,19.17
2022-10-28T01:22:07.792Z,19.22
2022-10-28T01:27:40.254Z,19.12
2022-10-28T01:32:54.954Z,18.96
2022-10-28T01:38:12.574Z,18.51
2022-10-28T01:43:21.940Z,18.22
2022-10-28T01:48:35.245Z,18.35
2022-10-28T01:53:40.851Z,17.60
2022-10-28T01:58:44.824Z,17.04
2022-10-28T02:03:51.742Z,16.70
2022-10-28T02:09:08.042Z,16.48
2022-10-28T02:14:22.471Z,16.39
2022-10-28T02:19:36.339Z,16.27
2022-10-28T02:24:49.300Z,16.23
2022-10-28T02:29:59.911Z,16.12
2022-10-28T02:35:08.581Z,15.92
2022-10-28T02:40:18.208Z,15.68
2022-10-28T02:45:26.523Z,15.73
2022-10-28T02:50:35.629Z,15.74
2022-10-28T02:55:44.704Z,15.57
2022-10-28T03:00:48.556Z,15.30
2022-10-28T03:05:53.711Z,15.26
2022-10-28T03:10:57.249Z,15.13
2022-10-28T03:16:00.859Z,14.85
2022-10-28T03:21:06.075Z,14.83
2022-10-28T03:26:09.632Z,14.72
2022-10-28T03:31:13.480Z,14.71
2022-10-28T03:36:18.830Z,14.84
2022-10-28T03:41:22.433Z,14.61
2022-10-28T03:46:25.972Z,14.42
2022-10-28T03:51:31.482Z,14.24
2022-10-28T03:56:35.086Z,14.13
2022-10-28T04:01:38.699Z,14.01
2022-10-28T04:06:43.949Z,13.95
2022-10-28T04:11:49.581Z,13.91
2022-10-28T04:16:53.129Z,13.81
2022-10-28T04:21:58.323Z,13.69
2022-10-28T04:27:01.957Z,13.55
2022-10-28T04:32:06.268Z,13.54
2022-10-28T04:37:11.486Z,13.41
2022-10-28T04:42:15.039Z,13.28
2022-10-28T04:47:18.943Z,13.12
2022-10-28T04:52:24.118Z,13.08
2022-10-28T04:57:27.722Z,13.01
2022-10-28T05:02:31.333Z,12.95
2022-10-28T05:07:36.539Z,12.86
2022-10-28T05:12:42.745Z,12.85
2022-10-28T05:17:46.055Z,12.77
2022-10-28T05:22:52.899Z,12.66
2022-10-28T05:27:59.968Z,12.65
2022-10-28T05:33:03.763Z,12.64
2022-10-28T05:38:08.963Z,12.55
2022-10-28T05:43:12.509Z,12.45
2022-10-28T05:48:16.061Z,12.35
2022-10-28T05:53:21.263Z,12.15
2022-10-28T05:58:24.868Z,12.09
2022-10-28T06:03:30.994Z,12.08
2022-10-28T06:08:36.707Z,12.03
2022-10-28T06:13:38.723Z,11.96
2022-10-28T06:18:42.303Z,11.99
2022-10-28T06:23:48.464Z,11.91
2022-10-28T06:28:51.263Z,11.89
2022-10-28T06:33:55.781Z,11.76
2022-10-28T06:39:01.626Z,11.72
2022-10-28T06:44:05.424Z,11.59
2022-10-28T06:49:10.602Z,11.62
2022-10-28T06:54:15.786Z,11.54
2022-10-28T06:59:19.470Z,11.44
2022-10-28T07:04:23.025Z,11.35
2022-10-28T07:09:28.264Z,11.24
2022-10-28T07:14:31.841Z,11.24
2022-10-28T07:19:35.447Z,11.24
2022-10-28T07:24:40.601Z,11.14
2022-10-28T07:29:44.114Z,11.14
2022-10-28T07:34:47.663Z,11.08
2022-10-28T07:39:52.846Z,11.07
2022-10-28T07:44:56.693Z,11.00
2022-10-28T07:50:00.240Z,10.88
2022-10-28T07:55:06.228Z,10.80
2022-10-28T08:00:11.095Z,10.79
2022-10-28T08:05:14.855Z,10.77
2022-10-28T08:10:20.094Z,10.77
2022-10-28T08:15:23.616Z,10.71
2022-10-28T08:20:27.222Z,10.49
2022-10-28T08:25:32.401Z,10.50
2022-10-28T08:30:50.255Z,10.57
2022-10-28T08:35:59.466Z,10.53
2022-10-28T08:41:15.062Z,10.51
2022-10-28T08:46:28.314Z,10.35
2022-10-28T08:51:39.629Z,10.43
2022-10-28T08:56:46.857Z,10.33
2022-10-28T09:01:52.761Z,10.24
2022-10-28T09:06:57.358Z,10.27
2022-10-28T09:12:17.561Z,10.32
2022-10-28T09:17:27.093Z,10.20
2022-10-28T09:22:40.435Z,10.21
2022-10-28T09:27:57.605Z,10.16
2022-10-28T09:33:16.508Z,10.21
2022-10-28T09:38:27.822Z,10.17
2022-10-28T09:43:34.739Z,10.15
2022-10-28T09:48:41.921Z,10.10
2022-10-28T09:53:52.427Z,10.02
2022-10-28T09:59:00.559Z,10.01
2022-10-28T10:04:13.231Z,9.94
2022-10-28T10:09:22.034Z,9.87
2022-10-28T10:14:31.068Z,9.84
2022-10-28T10:20:06.288Z,9.82
2022-10-28T10:25:25.942Z,9.76
2022-10-28T10:30:34.343Z,9.68
2022-10-28T10:35:39.904Z,9.69
2022-10-28T10:40:50.871Z,9.61
2022-10-28T10:46:02.200Z,9.58
2022-10-28T10:51:12.870Z,9.50
2022-10-28T10:56:25.887Z,9.52
2022-10-28T11:01:37.010Z,9.36
2022-10-28T11:06:44.477Z,9.37
2022-10-28T11:11:48.036Z,9.38
2022-10-28T11:16:55.655Z,9.31
2022-10-28T11:22:22.278Z,9.26
2022-10-28T11:27:40.045Z,9.23
2022-10-28T11:33:08.470Z,9.23
2022-10-28T11:38:38.459Z,9.25
2022-10-28T11:43:54.881Z,9.22
2022-10-28T11:49:21.379Z,9.31
2022-10-28T11:54:40.927Z,9.04
2022-10-28T12:00:15.809Z,8.97
2022-10-28T12:05:26.886Z,9.01
2022-10-28T12:10:39.629Z,9.01
2022-10-28T12:15:52.643Z,9.02
2022-10-28T12:21:02.242Z,9.00
2022-10-28T12:26:09.802Z,8.92
2022-10-28T12:31:21.705Z,8.83
2022-10-28T12:36:35.076Z,8.71
2022-10-28T12:41:56.267Z,8.69
2022-10-28T12:47:12.847Z,8.66
2022-10-28T12:52:22.960Z,8.53
2022-10-28T12:57:29.114Z,8.41
2022-10-28T13:02:37.371Z,8.47
2022-10-28T13:08:07.836Z,8.36
2022-10-28T13:13:23.817Z,8.34
2022-10-28T13:18:50.671Z,9.18
2022-10-28T13:24:04.570Z,9.47
2022-10-28T13:29:19.022Z,8.92
2022-10-28T13:34:31.127Z,8.49
2022-10-28T13:39:45.507Z,8.46
2022-10-28T13:44:50.638Z,8.42
2022-10-28T13:50:21.837Z,8.27
2022-10-28T13:55:42.558Z,8.23
2022-10-28T14:00:49.099Z,8.10
2022-10-28T14:05:58.815Z,8.09
2022-10-28T14:11:07.008Z,8.10
2022-10-28T14:16:24.305Z,8.10
2022-10-28T14:21:44.048Z,8.08
2022-10-28T14:27:27.277Z,8.11
2022-10-28T14:33:00.985Z,8.01
2022-10-28T14:38:36.091Z,7.91
2022-10-28T14:43:53.735Z,7.98
2022-10-28T14:48:58.995Z,8.24
2022-10-28T14:54:03.496Z,8.31
2022-10-28T14:59:24.760Z,8.57
2022-10-28T15:04:29.486Z,8.93
2022-10-28T15:09:34.595Z,9.32
2022-10-28T15:14:41.942Z,9.78
2022-10-28T15:19:46.825Z,10.05
2022-10-28T15:25:01.119Z,10.44
2022-10-28T15:30:15.325Z,11.13
2022-10-28T15:35:39.064Z,11.31
2022-10-28T15:40:42.633Z,11.61
2022-10-28T15:45:48.034Z,11.53
2022-10-28T15:51:12.301Z,12.16
2022-10-28T15:56:21.088Z,12.55
2022-10-28T16:01:37.906Z,13.19
2022-10-28T16:06:41.627Z,13.48
2022-10-28T16:11:47.513Z,13.92
2022-10-28T16:16:52.950Z,14.50
2022-10-28T16:21:57.064Z,14.94
2022-10-28T16:27:17.866Z,15.24
2022-10-28T16:32:27.599Z,15.52
2022-10-28T16:37:32.722Z,15.39
2022-10-28T16:42:38.355Z,15.42
2022-10-28T16:47:43.571Z,15.77
2022-10-28T16:52:47.865Z,16.07
2022-10-28T16:57:51.669Z,16.32
2022-10-28T17:02:57.015Z,16.37
2022-10-28T17:08:04.543Z,16.79
2022-10-28T17:13:14.060Z,16.92
2022-10-28T17:18:19.296Z,17.28
2022-10-28T17:23:22.840Z,17.46
2022-10-28T17:28:27.121Z,17.58
2022-10-28T17:33:33.798Z,17.39
2022-10-28T17:38:37.372Z,17.35
2022-10-28T17:43:40.937Z,17.45
2022-10-28T17:48:46.189Z,17.39
2022-10-28T17:53:54.573Z,17.33
2022-10-28T17:58:58.242Z,17.25
2022-10-28T18:04:03.936Z,17.08
2022-10-28T18:09:12.280Z,17.01
2022-10-28T18:14:16.064Z,17.13
2022-10-28T18:19:21.275Z,17.25
2022-10-28T18:24:26.072Z,17.38
2022-10-28T18:29:29.914Z,17.46
2022-10-28T18:34:35.214Z,17.59
2022-10-28T18:39:38.787Z,17.59
2022-10-28T18:44:42.390Z,17.90
2022-10-28T18:49:47.533Z,18.05
2022-10-28T18:54:51.056Z,18.13
2022-10-28T19:05:19.906Z,18.14
2022-10-28T19:10:23.448Z,18.33
2022-10-28T19:15:26.963Z,18.55
2022-10-28T19:20:32.143Z,18.75
2022-10-28T19:25:35.711Z,18.92
2022-10-28T19:30:39.256Z,19.10
2022-10-28T19:35:44.450Z,19.26
2022-10-28T19:40:47.974Z,19.37
2022-10-28T19:45:51.504Z,19.44
2022-10-28T19:50:57.391Z,19.33
2022-10-28T19:56:02.216Z,19.39
2022-10-28T20:01:07.464Z,19.39
2022-10-28T20:06:13.726Z,19.40
2022-10-28T20:11:21.540Z,19.42
2022-10-28T20:16:28.785Z,19.51
2022-10-28T20:21:34.834Z,19.59
2022-10-28T20:26:39.219Z,19.63
2022-10-28T20:31:42.755Z,19.82
2022-10-28T20:36:47.956Z,19.94
2022-10-28T20:41:51.566Z,20.23
2022-10-28T20:46:55.084Z,20.14
2022-10-28T20:52:00.232Z,20.07
2022-10-28T20:57:03.782Z,19.95
2022-10-28T21:02:09.362Z,20.15
2022-10-28T21:07:14.739Z,20.14
2022-10-28T21:12:18.251Z,20.06
2022-10-28T21:17:21.776Z,20.13
2022-10-28T21:22:27.019Z,20.13
2022-10-28T21:27:31.156Z,20.10
2022-10-28T21:32:34.682Z,20.09
2022-10-28T21:37:40.550Z,20.20
2022-10-28T21:42:49.563Z,20.32
2022-10-28T21:47:55.969Z,20.62
2022-10-28T21:53:01.519Z,20.75
2022-10-28T21:58:05.417Z,20.86
2022-10-28T22:03:09.285Z,20.62
2022-10-28T22:08:14.532Z,20.42
2022-10-28T22:13:18.073Z,20.41
2022-10-28T22:18:21.630Z,20.42
2022-10-28T22:23:26.843Z,20.24
2022-10-28T22:28:30.492Z,20.20
2022-10-28T22:33:34.339Z,20.13
2022-10-28T22:38:40.026Z,20.20
2022-10-28T22:43:45.618Z,20.13
2022-10-28T22:48:49.437Z,19.96
2022-10-28T22:53:55.178Z,20.13
2022-10-28T22:59:00.627Z,20.45
2022-10-28T23:04:03.422Z,20.67
2022-10-28T23:09:08.589Z,20.76
2022-10-28T23:14:12.116Z,20.82
2022-10-28T23:19:15.678Z,20.94
2022-10-28T23:24:20.867Z,20.91
2022-10-28T23:29:24.427Z,20.77
2022-10-28T23:34:28.483Z,20.75
2022-10-28T23:39:33.704Z,20.77
2022-10-28T23:44:37.245Z,20.66
2022-10-28T23:49:40.839Z,20.58
2022-10-28T23:54:46.001Z,20.51
2022-10-28T23:59:54.498Z,20.54
